sensor_id;sensor_type;location;lat;lon;timestamp;temperature;humidity
31687;DHT22;18285;51.330;4.946;2022-12-29T00:07:22;28.40;34.70
31687;DHT22;18285;51.330;4.946;2022-12-29T00:31:32;28.30;34.70
31687;DHT22;18285;51.330;4.946;2022-12-29T00:56:02;28.20;34.80
31687;DHT22;18285;51.330;4.946;2022-12-29T01:20:13;28.00;34.90
31687;DHT22;18285;51.330;4.946;2022-12-29T01:44:50;27.90;34.90
31687;DHT22;18285;51.330;4.946;2022-12-29T02:09:01;27.60;35.40
31687;DHT22;18285;51.330;4.946;2022-12-29T02:33:34;27.40;35.50
31687;DHT22;18285;51.330;4.946;2022-12-29T02:57:49;27.30;35.30
31687;DHT22;18285;51.330;4.946;2022-12-29T03:22:24;27.10;35.70
31687;DHT22;18285;51.330;4.946;2022-12-29T03:46:37;27.00;36.10
31687;DHT22;18285;51.330;4.946;2022-12-29T04:10:49;26.80;36.00
31687;DHT22;18285;51.330;4.946;2022-12-29T04:35:00;26.70;35.90
31687;DHT22;18285;51.330;4.946;2022-12-29T04:59:10;26.40;36.20
31687;DHT22;18285;51.330;4.946;2022-12-29T05:23:21;26.40;36.10
31687;DHT22;18285;51.330;4.946;2022-12-29T05:47:32;26.20;36.10
31687;DHT22;18285;51.330;4.946;2022-12-29T06:11:43;26.10;36.70
31687;DHT22;18285;51.330;4.946;2022-12-29T06:35:53;26.00;36.10
31687;DHT22;18285;51.330;4.946;2022-12-29T07:00:04;25.90;36.20
31687;DHT22;18285;51.330;4.946;2022-12-29T07:24:15;25.80;36.10
31687;DHT22;18285;51.330;4.946;2022-12-29T07:48:26;25.70;36.10
31687;DHT22;18285;51.330;4.946;2022-12-29T08:12:41;25.70;35.80
31687;DHT22;18285;51.330;4.946;2022-12-29T08:36:52;25.60;36.70
31687;DHT22;18285;51.330;4.946;2022-12-29T09:01:03;25.50;36.40
31687;DHT22;18285;51.330;4.946;2022-12-29T09:25:14;25.50;36.20
31687;DHT22;18285;51.330;4.946;2022-12-29T09:49:46;25.40;36.50
31687;DHT22;18285;51.330;4.946;2022-12-29T10:38:35;25.40;36.00
31687;DHT22;18285;51.330;4.946;2022-12-29T11:27:31;25.30;36.20
31687;DHT22;18285;51.330;4.946;2022-12-29T11:51:43;25.20;36.50
31687;DHT22;18285;51.330;4.946;2022-12-29T12:16:04;25.20;36.20
31687;DHT22;18285;51.330;4.946;2022-12-29T12:40:57;25.10;36.30
31687;DHT22;18285;51.330;4.946;2022-12-29T13:05:25;25.20;36.20
31687;DHT22;18285;51.330;4.946;2022-12-29T14:18:41;25.10;37.70
31687;DHT22;18285;51.330;4.946;2022-12-29T14:42:55;25.10;38.30
31687;DHT22;18285;51.330;4.946;2022-12-29T15:07:09;25.00;38.00
31687;DHT22;18285;51.330;4.946;2022-12-29T15:31:23;25.00;37.80
31687;DHT22;18285;51.330;4.946;2022-12-29T15:55:37;24.90;38.00
31687;DHT22;18285;51.330;4.946;2022-12-29T16:19:57;24.90;37.80
31687;DHT22;18285;51.330;4.946;2022-12-29T16:44:19;24.90;37.00
31687;DHT22;18285;51.330;4.946;2022-12-29T17:08:40;24.90;38.20
31687;DHT22;18285;51.330;4.946;2022-12-29T17:32:55;25.00;38.10
31687;DHT22;18285;51.330;4.946;2022-12-29T17:57:18;24.90;38.50
31687;DHT22;18285;51.330;4.946;2022-12-29T18:21:29;24.90;39.50
31687;DHT22;18285;51.330;4.946;2022-12-29T18:45:40;24.70;36.90
31687;DHT22;18285;51.330;4.946;2022-12-29T19:09:51;24.60;35.50
31687;DHT22;18285;51.330;4.946;2022-12-29T19:34:02;24.60;35.20
31687;DHT22;18285;51.330;4.946;2022-12-29T19:58:14;24.50;35.20
31687;DHT22;18285;51.330;4.946;2022-12-29T20:22:25;24.50;35.30
31687;DHT22;18285;51.330;4.946;2022-12-29T20:46:35;24.50;34.60
31687;DHT22;18285;51.330;4.946;2022-12-29T21:10:47;24.50;34.30
31687;DHT22;18285;51.330;4.946;2022-12-29T21:34:58;24.40;33.60
31687;DHT22;18285;51.330;4.946;2022-12-29T21:59:09;24.20;36.30
31687;DHT22;18285;51.330;4.946;2022-12-29T22:23:39;24.50;35.50
31687;DHT22;18285;51.330;4.946;2022-12-29T22:47:50;24.60;35.20
31687;DHT22;18285;51.330;4.946;2022-12-29T23:12:00;24.50;35.80
31687;DHT22;18285;51.330;4.946;2022-12-29T23:36:11;24.50;36.00
